Navajo Mountain, Utah
Current Conditions -  °F | °C
As of 1:55 AM on Monday 20 Oct 2014 (Local Time) from KBDG Reporting Station
Clear Clear  
Wind Chill: 46°   Ceiling: Unl
Heat Index: 48°   Visibility: 10mi
Dew Point: 38°   Wind: 6mph
Humidity: 69%   Direction: 80°E
Pressure: 30.24"   Gusts: NA
Location:  37.02°N, 110.79°W
Report Text: KBDG 200755Z AUTO 08005KT 10SM CLR 09/04 A3024 RMK AO1 T00910036
Loading
Personal Weather Stations






























Interactive Weather Map
Tropical Storm Tracking
New forecast layout! Learn more

10-Day Weather Forecast

Advertisements
Track Severe Weather on mobile